Time;durP1;ratioP1;P1;durP2;ratioP2;P2;SDS_P1;SDS_P2;PMS_P1;PMS_P2;Temp;Humidity;BMP_temperature;BMP_pressure;BME280_temperature;BME280_humidity;BME280_pressure;Samples;Min_cycle;Max_cycle;Signal;HPM_P1;HPM_P2
2022/03/01 00:00:44;;;;;;;8.35;5.22;;;;;;;5.86;76.08;102060.16;5014467;28;20491;-85
2022/03/01 00:03:10;;;;;;;5.95;4.45;;;;;;;6.19;75.88;102114.28;5013524;28;20037;-84
2022/03/01 00:05:35;;;;;;;7.07;4.82;;;;;;;5.91;75.92;102071.88;5009016;28;20577;-86
2022/03/01 00:08:01;;;;;;;7.45;4.63;;;;;;;6.53;75.13;102135.59;5009197;28;20034;-85
2022/03/01 00:10:27;;;;;;;7.13;4.85;;;;;;;5.92;75.51;102055.53;5012771;28;20034;-86
2022/03/01 00:12:53;;;;;;;7.32;5.15;;;;;;;6.13;75.42;102082.59;5014339;28;20415;-86
2022/03/01 00:15:18;;;;;;;6.50;5.03;;;;;;;5.79;75.60;102032.75;5013684;28;20022;-87
2022/03/01 00:17:44;;;;;;;7.05;4.68;;;;;;;5.96;76.30;102061.97;5012971;28;20041;-88
2022/03/01 00:20:10;;;;;;;7.35;4.93;;;;;;;6.35;75.57;102120.91;5013128;28;20037;-88
2022/03/01 00:22:37;;;;;;;6.55;4.63;;;;;;;6.25;75.46;102085.44;5012589;28;20474;-88
2022/03/01 00:25:03;;;;;;;7.43;4.40;;;;;;;5.69;75.62;102018.03;5012524;28;20025;-88
2022/03/01 00:27:29;;;;;;;6.78;4.70;;;;;;;6.13;76.04;102092.06;4996615;28;20030;-88
2022/03/01 00:29:54;;;;;;;6.38;4.60;;;;;;;6.31;75.67;102125.81;5012584;28;20071;-88
2022/03/01 00:32:20;;;;;;;6.88;4.65;;;;;;;6.28;76.12;102112.53;4996425;28;20037;-87
2022/03/01 00:34:46;;;;;;;6.57;4.70;;;;;;;5.69;75.75;101999.91;5012377;28;20073;-88
2022/03/01 00:37:12;;;;;;;6.43;4.45;;;;;;;6.15;75.88;102095.72;5012659;28;20410;-88
2022/03/01 00:39:39;;;;;;;6.45;4.47;;;;;;;6.25;76.04;102113.97;5012407;28;20117;-87
2022/03/01 00:42:06;;;;;;;6.45;4.53;;;;;;;6.21;75.95;102104.06;5012829;28;20538;-88
2022/03/01 00:44:33;;;;;;;6.45;4.60;;;;;;;5.85;75.90;102022.97;5011815;28;20045;-88
2022/03/01 00:47:00;;;;;;;7.22;4.22;;;;;;;6.20;75.51;102095.38;5012664;28;20037;-88
2022/03/01 00:49:25;;;;;;;6.25;4.47;;;;;;;6.27;75.13;102109.84;5018160;28;20045;-87
2022/03/01 00:51:51;;;;;;;6.40;4.60;;;;;;;6.27;75.71;102108.16;5015456;28;20079;-88
2022/03/01 00:54:17;;;;;;;6.43;4.38;;;;;;;6.11;75.83;102078.94;5015060;28;20575;-87
2022/03/01 00:56:42;;;;;;;6.20;4.53;;;;;;;5.98;75.93;102073.41;5014541;28;20029;-88
2022/03/01 00:59:08;;;;;;;5.00;3.80;;;;;;;6.27;75.76;102110.75;5015441;28;20022;-87
2022/03/01 01:01:34;;;;;;;6.30;4.50;;;;;;;6.18;75.76;102099.53;5015842;28;20125;-88
2022/03/01 01:04:00;;;;;;;7.70;4.80;;;;;;;6.26;75.69;102127.06;5015291;28;20037;-88
2022/03/01 01:06:25;;;;;;;5.93;4.35;;;;;;;6.15;75.62;102082.75;4998273;28;20103;-88
2022/03/01 01:08:51;;;;;;;7.78;4.45;;;;;;;6.31;75.33;102119.72;5015603;28;20581;-87
2022/03/01 01:11:18;;;;;;;6.00;4.30;;;;;;;6.37;75.44;102128.06;4999337;28;20079;-87
2022/03/01 01:13:45;;;;;;;6.72;4.57;;;;;;;6.34;75.40;102126.88;5033145;28;20036;-88
2022/03/01 01:16:11;;;;;;;5.53;4.10;;;;;;;5.70;75.59;102027.63;5015425;28;20032;-88
2022/03/01 01:18:38;;;;;;;5.50;4.22;;;;;;;6.36;75.50;102143.50;4998925;28;20022;-87
2022/03/01 01:21:04;;;;;;;5.88;4.50;;;;;;;6.24;75.44;102114.72;5015416;28;20163;-88
2022/03/01 01:23:30;;;;;;;5.78;4.15;;;;;;;6.03;75.42;102083.44;5015260;28;20108;-88
2022/03/01 01:25:56;;;;;;;5.22;4.15;;;;;;;5.83;75.36;102040.06;5015141;28;20056;-88
2022/03/01 01:28:23;;;;;;;5.82;4.30;;;;;;;5.77;75.34;102030.78;5014569;28;20021;-86
2022/03/01 01:30:49;;;;;;;5.57;4.28;;;;;;;6.28;75.79;102129.81;5014949;28;20534;-88
2022/03/01 01:33:14;;;;;;;5.88;4.30;;;;;;;6.02;75.68;102091.06;5014619;28;20114;-87
2022/03/01 01:35:40;;;;;;;5.63;3.92;;;;;;;6.16;75.46;102128.66;5014146;28;20033;-88
2022/03/01 01:38:07;;;;;;;6.07;4.47;;;;;;;6.37;75.18;102129.75;4998565;28;20487;-86
2022/03/01 01:40:33;;;;;;;5.70;4.28;;;;;;;6.34;74.82;102139.84;5032362;28;20171;-87
2022/03/01 01:43:00;;;;;;;5.53;4.07;;;;;;;6.39;75.01;102154.16;5031977;28;20076;-86
2022/03/01 01:45:26;;;;;;;6.57;4.00;;;;;;;6.09;75.52;102121.97;5013583;28;20029;-87
2022/03/01 01:47:53;;;;;;;6.05;4.38;;;;;;;5.82;75.94;102094.34;5014313;28;20091;-88
2022/03/01 01:50:19;;;;;;;5.80;3.92;;;;;;;6.27;75.23;102143.56;5014125;28;20053;-87
2022/03/01 01:52:45;;;;;;;8.32;3.95;;;;;;;6.35;74.75;102134.81;5014228;28;20418;-87
2022/03/01 01:55:13;;;;;;;5.78;4.00;;;;;;;6.29;75.22;102153.31;5014112;28;20033;-86
2022/03/01 01:57:40;;;;;;;6.18;4.28;;;;;;;6.11;75.29;102134.31;5014186;28;20037;-88
2022/03/01 02:00:06;;;;;;;7.15;3.97;;;;;;;6.07;75.49;102128.69;5014607;28;20557;-88
2022/03/01 02:02:33;;;;;;;5.55;4.10;;;;;;;6.06;75.75;102137.28;5032436;28;20044;-89
2022/03/01 02:05:00;;;;;;;7.45;3.90;;;;;;;6.16;75.48;102118.28;5013842;28;20033;-87
2022/03/01 02:07:25;;;;;;;5.45;4.03;;;;;;;6.25;75.72;102146.00;5014534;28;20026;-85
2022/03/01 02:09:51;;;;;;;6.20;4.10;;;;;;;5.95;75.70;102086.06;5013957;28;20083;-88
2022/03/01 02:12:17;;;;;;;5.97;4.18;;;;;;;6.16;75.95;102137.38;5013612;28;20034;-84
2022/03/01 02:14:42;;;;;;;5.32;3.90;;;;;;;6.13;75.50;102120.59;5031365;28;20037;-85
2022/03/01 02:17:09;;;;;;;4.63;3.83;;;;;;;6.27;75.55;102147.06;5031463;28;20108;-86
2022/03/01 02:19:36;;;;;;;5.30;3.78;;;;;;;6.23;75.62;102144.03;5012967;28;20029;-86
2022/03/01 02:22:02;;;;;;;5.43;3.90;;;;;;;6.20;75.36;102120.38;5013642;28;20487;-86
2022/03/01 02:24:29;;;;;;;5.10;3.63;;;;;;;6.22;75.31;102140.53;5013436;28;20033;-85
2022/03/01 02:26:56;;;;;;;4.93;3.75;;;;;;;6.30;75.49;102133.44;5013571;28;20045;-86
2022/03/01 02:29:22;;;;;;;5.28;3.80;;;;;;;6.22;75.44;102131.81;5013600;28;20021;-87
2022/03/01 02:31:48;;;;;;;5.25;3.90;;;;;;;6.03;75.25;102109.38;5013947;28;20048;-87
2022/03/01 02:34:14;;;;;;;5.50;3.95;;;;;;;5.92;75.59;102097.03;5013224;28;20090;-88
2022/03/01 02:36:39;;;;;;;6.45;3.47;;;;;;;6.21;75.57;102142.97;4996550;28;20029;-87
2022/03/01 02:39:05;;;;;;;5.65;3.80;;;;;;;5.85;75.90;102090.38;4997286;28;20037;-88
2022/03/01 02:41:31;;;;;;;5.03;3.50;;;;;;;6.14;76.33;102137.97;5014010;28;20407;-87
2022/03/01 02:43:57;;;;;;;5.13;4.00;;;;;;;6.21;75.90;102145.56;5013286;28;20095;-87
2022/03/01 02:46:23;;;;;;;4.88;3.70;;;;;;;6.19;75.58;102115.97;5013856;28;20025;-87
2022/03/01 02:48:49;;;;;;;5.28;3.63;;;;;;;6.31;75.11;102143.97;4996794;28;20104;-86
2022/03/01 02:51:15;;;;;;;4.55;3.60;;;;;;;6.11;75.78;102134.31;5022373;28;20053;-88
2022/03/01 02:53:40;;;;;;;4.80;3.60;;;;;;;5.79;75.46;102069.03;5028525;28;20041;-87
2022/03/01 02:56:07;;;;;;;5.38;3.75;;;;;;;6.25;75.14;102145.09;5017781;28;20410;-87
2022/03/01 02:58:32;;;;;;;;;;;;;;;6.13;75.68;102131.88;5033111;28;20025;-88
2022/03/01 03:00:58;;;;;;;4.95;3.58;;;;;;;6.19;75.91;102126.38;5011908;28;19940;-87
2022/03/01 03:03:23;;;;;;;5.85;4.18;;;;;;;6.03;75.74;102134.38;5013857;28;20024;-87
2022/03/01 03:05:49;;;;;;;5.60;3.85;;;;;;;5.93;75.25;102104.06;5030606;28;20137;-87
2022/03/01 03:08:14;;;;;;;4.85;3.80;;;;;;;6.24;75.24;102157.13;5012898;28;20029;-87
2022/03/01 03:10:40;;;;;;;5.47;3.63;;;;;;;6.02;75.42;102119.59;5013688;28;20197;-88
2022/03/01 03:13:06;;;;;;;6.13;3.63;;;;;;;6.20;75.21;102148.91;5014009;28;20018;-88
2022/03/01 03:15:31;;;;;;;5.85;4.07;;;;;;;5.94;75.56;102108.47;4996560;28;20415;-88
2022/03/01 03:17:58;;;;;;;5.70;3.60;;;;;;;5.96;75.48;102113.84;4997232;28;20091;-88
2022/03/01 03:20:25;;;;;;;;;;;;;;;6.24;75.21;102144.16;4997813;28;20033;-89
2022/03/01 03:22:51;;;;;;;5.95;3.95;;;;;;;6.15;75.11;102145.91;5030277;28;19917;-89
2022/03/01 03:25:17;;;;;;;4.82;3.58;;;;;;;5.85;75.32;102080.00;4996601;28;20418;-88
2022/03/01 03:27:43;;;;;;;4.55;3.63;;;;;;;6.05;75.56;102138.97;5030385;28;20037;-86
2022/03/01 03:30:09;;;;;;;4.78;3.15;;;;;;;6.08;75.52;102144.41;5032146;28;20030;-85
2022/03/01 03:32:35;;;;;;;6.05;3.80;;;;;;;5.65;75.24;102060.00;5017011;28;20068;-86
2022/03/01 03:35:01;;;;;;;6.35;3.83;;;;;;;5.93;75.41;102104.06;5016609;28;20056;-86
2022/03/01 03:37:27;;;;;;;5.63;3.80;;;;;;;6.05;75.31;102118.22;5034575;28;20560;-86
2022/03/01 03:39:53;;;;;;;6.40;3.83;;;;;;;6.10;75.65;102144.56;5034650;28;20022;-85
2022/03/01 03:42:20;;;;;;;5.15;3.80;;;;;;;5.89;75.08;102094.16;5032927;28;20495;-86
2022/03/01 03:44:45;;;;;;;5.10;3.60;;;;;;;5.70;75.56;102061.31;5016518;28;20044;-87
2022/03/01 03:47:11;;;;;;;5.93;3.97;;;;;;;5.65;75.22;102057.41;5016344;28;20421;-89
2022/03/01 03:49:37;;;;;;;4.28;3.63;;;;;;;6.09;75.61;102130.66;5013613;28;20033;-88
2022/03/01 03:52:04;;;;;;;5.53;3.97;;;;;;;6.00;75.40;102124.63;4997206;28;20112;-88
2022/03/01 03:54:31;;;;;;;6.00;3.65;;;;;;;6.16;75.21;102147.75;4997317;28;20038;-89
2022/03/01 03:56:58;;;;;;;5.07;3.90;;;;;;;5.81;75.07;102076.97;4997073;28;20040;-89
2022/03/01 03:59:24;;;;;;;6.18;4.03;;;;;;;5.78;75.35;102080.19;5013633;28;20034;-88
2022/03/01 04:01:49;;;;;;;5.90;4.30;;;;;;;6.03;75.65;102130.13;4996751;28;20607;-85
2022/03/01 04:04:15;;;;;;;5.15;3.90;;;;;;;5.86;75.19;102105.16;5012859;28;20038;-86
2022/03/01 04:06:41;;;;;;;7.53;4.38;;;;;;;5.84;75.67;102100.56;5012866;28;20034;-85
2022/03/01 04:09:07;;;;;;;6.85;4.18;;;;;;;6.11;74.98;102133.41;5013155;28;20030;-86
2022/03/01 04:11:33;;;;;;;5.68;4.28;;;;;;;5.82;75.06;102113.41;5013129;28;20566;-88
2022/03/01 04:13:59;;;;;;;5.68;4.18;;;;;;;5.99;75.36;102140.97;5013335;28;20076;-87
2022/03/01 04:16:27;;;;;;;6.15;4.20;;;;;;;5.68;75.42;102088.78;5012980;28;20022;-87
2022/03/01 04:18:54;;;;;;;6.60;4.32;;;;;;;5.94;75.13;102147.34;5013039;28;20100;-88
2022/03/01 04:21:21;;;;;;;6.45;4.18;;;;;;;5.88;75.02;102119.19;5012538;28;20084;-86
2022/03/01 04:23:47;;;;;;;6.45;4.15;;;;;;;6.05;74.99;102145.81;5012877;28;20041;-84
2022/03/01 04:26:13;;;;;;;;;;;;;;;5.97;75.35;102149.34;5012996;28;20060;-84
2022/03/01 04:28:39;;;;;;;7.50;3.65;;;;;;;5.88;75.25;102149.34;5029856;28;19917;-87
2022/03/01 04:31:05;;;;;;;5.60;4.18;;;;;;;5.95;75.45;102151.81;5013099;28;20049;-86
2022/03/01 04:33:30;;;;;;;7.05;4.70;;;;;;;5.91;75.45;102147.97;5012907;28;20428;-86
2022/03/01 04:35:59;;;;;;;4.97;3.83;;;;;;;5.87;75.55;102134.59;5012528;28;20060;-87
2022/03/01 04:38:25;;;;;;;6.15;4.20;;;;;;;6.04;75.27;102164.75;5013165;28;20033;-86
2022/03/01 04:40:52;;;;;;;5.75;4.10;;;;;;;5.79;75.28;102139.03;5012023;28;20033;-89
2022/03/01 04:43:19;;;;;;;6.53;4.30;;;;;;;5.93;75.52;102171.47;5011968;28;20042;-88
2022/03/01 04:45:45;;;;;;;6.65;4.20;;;;;;;5.83;75.60;102151.53;5012650;28;20030;-89
2022/03/01 04:48:11;;;;;;;5.70;4.28;;;;;;;5.96;74.88;102145.84;4996322;28;20045;-88
2022/03/01 04:50:38;;;;;;;6.97;4.25;;;;;;;6.08;75.01;102175.53;5010543;28;20423;-87
2022/03/01 04:53:10;;;;;;;4.93;3.92;;;;;;;5.95;74.98;102157.00;5014338;28;20112;-89
2022/03/01 04:55:38;;;;;;;5.10;3.72;;;;;;;5.70;75.11;102104.47;4997106;28;20073;-90
2022/03/01 04:58:04;;;;;;;6.30;4.25;;;;;;;5.95;75.38;102176.81;5013051;28;20030;-88
2022/03/01 05:00:30;;;;;;;5.40;4.00;;;;;;;5.75;75.43;102147.28;5012901;28;20573;-88
2022/03/01 05:02:56;;;;;;;5.78;4.20;;;;;;;5.88;75.91;102168.44;5012562;28;20113;-87
2022/03/01 05:05:22;;;;;;;5.60;4.28;;;;;;;5.91;75.00;102141.88;5012709;28;20101;-88
2022/03/01 05:07:49;;;;;;;5.47;3.80;;;;;;;5.87;75.36;102152.72;4994684;28;20463;-88
2022/03/01 05:10:18;;;;;;;5.75;3.90;;;;;;;6.00;75.51;102163.53;5011987;28;20032;-87
2022/03/01 05:12:48;;;;;;;4.78;3.55;;;;;;;5.71;75.21;102127.94;5012075;28;20026;-85
2022/03/01 05:15:14;;;;;;;5.65;4.10;;;;;;;5.98;75.19;102187.50;5012986;28;20097;-85
2022/03/01 05:17:40;;;;;;;6.10;4.03;;;;;;;5.67;74.85;102114.53;5011913;28;20530;-84
2022/03/01 05:20:07;;;;;;;6.32;4.22;;;;;;;5.53;74.92;102115.81;5004897;28;20031;-87
2022/03/01 05:22:33;;;;;;;6.50;4.00;;;;;;;5.25;75.31;102066.56;4999952;28;20566;-85
2022/03/01 05:24:59;;;;;;;6.47;4.00;;;;;;;5.41;75.43;102105.19;5018037;28;20034;-85
2022/03/01 05:27:24;;;;;;;6.70;4.03;;;;;;;5.76;75.65;102163.75;5010823;28;20112;-84
2022/03/01 05:29:50;;;;;;;6.43;4.22;;;;;;;5.70;75.23;102144.25;5013188;28;20034;-86
2022/03/01 05:32:17;;;;;;;6.43;4.30;;;;;;;5.72;75.01;102134.94;5011862;28;20096;-85
2022/03/01 05:34:44;;;;;;;6.13;4.20;;;;;;;5.64;75.30;102146.25;5011634;28;20499;-86
2022/03/01 05:37:09;;;;;;;5.53;4.07;;;;;;;5.55;75.33;102131.53;5011821;28;20040;-86
2022/03/01 05:39:35;;;;;;;5.78;3.95;;;;;;;5.80;75.42;102177.16;5008987;28;20030;-87
2022/03/01 05:42:03;;;;;;;5.93;3.90;;;;;;;5.85;75.08;102186.28;4995801;28;20034;-89
2022/03/01 05:44:29;;;;;;;5.85;4.07;;;;;;;5.82;75.33;102186.00;5011057;28;20030;-88
2022/03/01 05:46:54;;;;;;;6.22;4.20;;;;;;;5.61;75.65;102158.00;4996376;28;20407;-84
2022/03/01 05:49:20;;;;;;;5.68;4.07;;;;;;;5.80;75.57;102189.19;4995080;28;20108;-88
2022/03/01 05:51:46;;;;;;;6.80;4.32;;;;;;;5.86;75.53;102202.75;5011775;28;20033;-87
2022/03/01 05:54:12;;;;;;;7.13;4.05;;;;;;;5.93;75.37;102200.00;5012390;28;20099;-87
2022/03/01 05:56:38;;;;;;;5.70;3.88;;;;;;;5.83;74.97;102163.56;5011477;28;20036;-87
2022/03/01 05:59:04;;;;;;;8.93;4.22;;;;;;;5.80;75.22;102171.97;5011322;28;20026;-87
2022/03/01 06:01:40;;;;;;;5.45;3.88;;;;;;;5.82;74.81;102169.50;5011530;28;20117;-91
2022/03/01 06:04:16;;;;;;;5.40;3.80;;;;;;;5.72;75.47;102168.66;5020373;28;20087;-89
2022/03/01 06:06:41;;;;;;;4.95;3.90;;;;;;;5.97;75.17;102204.72;5033852;28;20030;-86
2022/03/01 06:09:09;;;;;;;6.00;4.07;;;;;;;5.70;74.82;102145.94;5015369;28;20065;-86
2022/03/01 06:11:35;;;;;;;6.55;4.32;;;;;;;5.83;75.51;102205.06;4995436;28;20026;-86
2022/03/01 06:14:02;;;;;;;6.15;4.10;;;;;;;5.55;75.17;102160.03;5011549;28;20480;-85
2022/03/01 06:16:27;;;;;;;5.05;3.80;;;;;;;5.55;75.54;102150.56;5029063;28;20034;-86
2022/03/01 06:18:53;;;;;;;4.90;3.67;;;;;;;5.83;75.54;102205.97;5022647;28;20072;-86
2022/03/01 06:21:20;;;;;;;5.90;4.25;;;;;;;5.68;75.63;102186.34;4996884;28;20127;-84
2022/03/01 06:23:46;;;;;;;4.85;3.53;;;;;;;5.60;75.04;102161.38;5010951;28;20038;-85
2022/03/01 06:26:13;;;;;;;6.95;4.80;;;;;;;6.00;74.82;102227.44;5010891;28;20034;-88
2022/03/01 06:28:39;;;;;;;6.00;3.85;;;;;;;5.87;75.17;102223.63;4998710;28;20056;-86
2022/03/01 06:31:04;;;;;;;5.57;4.03;;;;;;;6.03;75.14;102249.41;5007782;28;20468;-85
2022/03/01 06:33:30;;;;;;;4.63;3.65;;;;;;;5.80;74.99;102202.16;5007440;28;20488;-85
2022/03/01 06:35:55;;;;;;;5.20;3.72;;;;;;;5.45;74.53;102146.16;4992449;28;20034;-87
2022/03/01 06:38:21;;;;;;;5.88;3.70;;;;;;;5.81;74.61;102210.09;4992224;28;20511;-87
2022/03/01 06:40:51;;;;;;;4.95;3.80;;;;;;;5.98;75.06;102266.19;4991182;28;20097;-87
2022/03/01 06:43:17;;;;;;;6.10;3.65;;;;;;;5.78;74.77;102212.41;4991323;28;20108;-88
2022/03/01 06:45:43;;;;;;;5.82;3.85;;;;;;;5.88;74.89;102225.47;4991420;28;20058;-88
2022/03/01 06:48:09;;;;;;;5.38;3.88;;;;;;;5.91;74.65;102251.69;5007749;28;20460;-87
2022/03/01 06:50:35;;;;;;;5.18;3.80;;;;;;;5.93;74.29;102225.91;5007540;28;20053;-87
2022/03/01 06:53:00;;;;;;;4.28;3.40;;;;;;;5.76;75.11;102213.91;5006784;28;20096;-86
2022/03/01 06:55:27;;;;;;;6.55;4.15;;;;;;;6.23;73.79;102261.69;5005905;28;20038;-86
2022/03/01 06:57:53;;;;;;;5.57;3.88;;;;;;;6.14;73.94;102240.06;4990537;28;20026;-86
2022/03/01 07:00:19;;;;;;;6.93;3.88;;;;;;;6.02;74.67;102260.53;5006322;28;20034;-86
2022/03/01 07:02:45;;;;;;;5.03;3.70;;;;;;;5.85;74.45;102219.97;4990247;28;20026;-86
2022/03/01 07:05:12;;;;;;;5.93;3.97;;;;;;;6.25;74.04;102260.13;5007988;28;20023;-86
2022/03/01 07:07:38;;;;;;;5.53;3.75;;;;;;;6.08;74.49;102271.50;4994310;28;20039;-87
2022/03/01 07:10:06;;;;;;;7.50;4.00;;;;;;;6.19;74.30;102264.75;4978571;28;20037;-85
2022/03/01 07:12:32;;;;;;;5.10;3.78;;;;;;;5.65;74.52;102219.72;5011220;28;20121;-86
2022/03/01 07:14:57;;;;;;;6.88;3.85;;;;;;;5.93;73.80;102236.28;4994630;28;20125;-87
2022/03/01 07:17:23;;;;;;;4.78;3.45;;;;;;;5.87;74.55;102259.03;4996004;28;20034;-87
2022/03/01 07:19:50;;;;;;;5.57;3.80;;;;;;;5.93;74.32;102277.78;5011361;28;20026;-87
2022/03/01 07:22:17;;;;;;;6.50;4.00;;;;;;;5.74;74.40;102256.94;4995872;28;20026;-87
2022/03/01 07:24:43;;;;;;;5.32;3.72;;;;;;;5.87;74.33;102257.34;5011028;28;20065;-87
2022/03/01 07:27:09;;;;;;;5.78;3.88;;;;;;;5.83;74.93;102272.47;4995916;28;20500;-85
2022/03/01 07:29:36;;;;;;;5.25;3.60;;;;;;;5.82;74.36;102258.59;5013839;28;20041;-88
2022/03/01 07:32:04;;;;;;;6.38;3.90;;;;;;;6.05;74.67;102302.34;5014413;28;20454;-86
2022/03/01 07:34:31;;;;;;;5.25;4.03;;;;;;;5.64;74.64;102233.47;5013900;28;20033;-86
2022/03/01 07:36:56;;;;;;;;;;;;;;;6.19;74.22;102303.66;5014378;28;20112;-86
2022/03/01 07:39:22;;;;;;;5.93;3.75;;;;;;;6.03;74.14;102277.00;5030542;28;20351;-88
2022/03/01 07:41:48;;;;;;;4.60;3.40;;;;;;;5.92;74.22;102256.09;4997785;28;20084;-85
2022/03/01 07:44:18;;;;;;;4.63;3.67;;;;;;;6.06;74.47;102306.75;4997648;28;20037;-89
2022/03/01 07:46:45;;;;;;;6.32;3.88;;;;;;;5.85;74.03;102242.41;5014305;28;20021;-89
2022/03/01 07:49:11;;;;;;;5.32;3.90;;;;;;;6.14;73.91;102296.19;5015058;28;20021;-86
2022/03/01 07:51:38;;;;;;;5.05;3.63;;;;;;;5.82;74.25;102256.00;5017470;28;20045;-89
2022/03/01 07:54:04;;;;;;;5.57;3.70;;;;;;;6.14;74.22;102309.16;5033936;28;20029;-88
2022/03/01 07:56:30;;;;;;;5.93;3.90;;;;;;;6.18;73.87;102309.63;5017346;28;20026;-87
2022/03/01 07:58:56;;;;;;;5.15;3.88;;;;;;;6.04;74.38;102310.88;5035022;28;20634;-89
2022/03/01 08:01:22;;;;;;;5.97;3.78;;;;;;;5.98;74.58;102309.38;5017445;28;20109;-88
2022/03/01 08:03:50;;;;;;;4.68;3.55;;;;;;;6.02;74.09;102302.03;5001023;28;20077;-86
2022/03/01 08:06:16;;;;;;;5.90;3.60;;;;;;;6.01;73.72;102252.59;5035209;28;20030;-88
2022/03/01 08:08:42;;;;;;;6.28;3.60;;;;;;;6.00;73.47;102267.25;5017306;28;20025;-87
2022/03/01 08:11:09;;;;;;;5.65;3.53;;;;;;;6.36;73.37;102312.16;5017136;28;20032;-87
2022/03/01 08:13:37;;;;;;;5.05;3.95;;;;;;;6.26;73.21;102306.06;5034596;28;20160;-88
2022/03/01 08:16:04;;;;;;;5.68;3.70;;;;;;;5.92;73.53;102256.09;5017114;28;20033;-89
2022/03/01 08:18:30;;;;;;;4.47;3.20;;;;;;;5.89;73.33;102241.94;5000686;28;20122;-87
2022/03/01 08:20:57;;;;;;;5.35;3.67;;;;;;;6.21;73.34;102303.81;5017468;28;20030;-88
2022/03/01 08:23:27;;;;;;;5.63;3.63;;;;;;;6.15;73.30;102292.84;5034673;28;20040;-86
2022/03/01 08:25:53;;;;;;;4.70;3.55;;;;;;;5.85;73.89;102253.69;5016677;28;20116;-86
2022/03/01 08:28:20;;;;;;;6.80;3.92;;;;;;;5.83;74.08;102282.81;5035363;28;20048;-87
2022/03/01 08:30:46;;;;;;;7.40;4.03;;;;;;;5.88;74.02;102269.56;5029770;28;20111;-86
2022/03/01 08:33:15;;;;;;;5.13;3.70;;;;;;;5.77;73.81;102246.84;5045886;28;20034;-86
2022/03/01 08:35:40;;;;;;;5.45;3.78;;;;;;;6.11;73.68;102296.81;5045521;28;20423;-87
2022/03/01 08:38:06;;;;;;;5.85;3.85;;;;;;;5.95;74.47;102309.03;5029859;28;20036;-85
2022/03/01 08:40:34;;;;;;;6.50;4.30;;;;;;;5.72;73.92;102228.25;5046399;28;20041;-87
2022/03/01 08:43:00;;;;;;;7.47;4.15;;;;;;;6.08;73.63;102309.50;5046459;28;20087;-87
2022/03/01 08:45:27;;;;;;;5.90;3.65;;;;;;;5.90;73.87;102267.09;5014620;28;20033;-87
2022/03/01 08:47:53;;;;;;;5.38;3.95;;;;;;;5.88;74.34;102295.47;5014822;28;20092;-86
2022/03/01 08:50:19;;;;;;;5.30;3.78;;;;;;;5.86;73.47;102270.16;5046325;28;20045;-87
2022/03/01 08:52:45;;;;;;;6.55;4.55;;;;;;;6.01;74.36;102320.97;5046355;28;20036;-87
2022/03/01 08:55:12;;;;;;;8.05;4.40;;;;;;;5.76;73.71;102239.84;5014701;28;20034;-88
2022/03/01 08:57:38;;;;;;;5.95;3.90;;;;;;;5.95;73.99;102284.06;5046505;28;20032;-88
2022/03/01 09:00:07;;;;;;;6.53;4.13;;;;;;;5.88;73.48;102251.41;5030086;28;20551;-87
2022/03/01 09:02:35;;;;;;;7.65;4.30;;;;;;;6.20;73.25;102296.78;5029915;28;20034;-87
2022/03/01 09:05:01;;;;;;;8.40;4.65;;;;;;;5.75;74.14;102248.38;5014544;28;20040;-86
2022/03/01 09:07:27;;;;;;;6.95;4.53;;;;;;;5.86;73.89;102273.69;5046591;28;20033;-87
2022/03/01 09:09:54;;;;;;;6.28;4.43;;;;;;;5.87;74.15;102280.69;5029652;28;20038;-88
2022/03/01 09:12:22;;;;;;;6.80;4.32;;;;;;;6.13;73.69;102297.88;5046272;28;20491;-89
2022/03/01 09:14:47;;;;;;;8.30;4.05;;;;;;;5.81;74.06;102256.75;5029507;28;20034;-87
2022/03/01 09:17:13;;;;;;;7.85;4.43;;;;;;;6.01;74.02;102315.78;5046009;28;20467;-87
2022/03/01 09:19:39;;;;;;;6.63;4.32;;;;;;;5.92;73.98;102284.59;5014020;28;20466;-87
2022/03/01 09:22:05;;;;;;;7.90;4.25;;;;;;;6.03;73.24;102275.34;5029573;28;20136;-87
2022/03/01 09:24:31;;;;;;;6.97;4.68;;;;;;;6.09;73.25;102255.16;5045947;28;20064;-87
2022/03/01 09:27:01;;;;;;;8.23;4.80;;;;;;;5.98;73.21;102261.00;5045708;28;20022;-89
2022/03/01 09:29:30;;;;;;;7.90;5.20;;;;;;;6.19;72.93;102290.69;5033852;28;20033;-86
2022/03/01 09:31:56;;;;;;;7.97;4.63;;;;;;;6.13;73.63;102286.59;5015770;28;20104;-87
2022/03/01 09:34:22;;;;;;;7.63;4.88;;;;;;;6.07;73.21;102268.75;4999096;28;20057;-87
2022/03/01 09:36:51;;;;;;;8.02;5.07;;;;;;;5.58;73.02;102176.75;5015455;28;20125;-87
2022/03/01 09:39:16;;;;;;;9.30;5.20;;;;;;;6.08;73.25;102288.75;5001521;28;20025;-87
2022/03/01 09:41:44;;;;;;;7.80;5.07;;;;;;;5.89;74.25;102275.66;5019829;28;20025;-86
2022/03/01 09:44:12;;;;;;;8.77;5.43;;;;;;;5.46;74.21;102212.78;5019062;28;20042;-86
2022/03/01 09:46:38;;;;;;;7.32;4.97;;;;;;;5.96;74.42;102290.16;5022556;28;20057;-87
2022/03/01 09:49:06;;;;;;;6.85;5.18;;;;;;;6.09;73.80;102296.66;5023588;28;20056;-88
2022/03/01 09:51:35;;;;;;;9.00;5.15;;;;;;;5.86;73.73;102244.22;5018404;28;20037;-87
2022/03/01 09:54:02;;;;;;;7.82;5.18;;;;;;;5.55;73.89;102210.16;5015431;28;20549;-86
2022/03/01 09:56:28;;;;;;;7.93;4.95;;;;;;;5.95;74.12;102277.94;5015360;28;20053;-87
2022/03/01 09:58:55;;;;;;;7.80;5.10;;;;;;;5.86;74.09;102250.34;5031826;28;20029;-86
2022/03/01 10:01:21;;;;;;;8.18;4.80;;;;;;;5.93;74.14;102272.59;5015441;28;20026;-86
2022/03/01 10:03:48;;;;;;;9.02;5.22;;;;;;;5.55;74.43;102215.34;5015170;28;20029;-87
2022/03/01 10:06:15;;;;;;;10.57;5.30;;;;;;;5.96;74.04;102269.41;5031604;28;20025;-87
2022/03/01 10:08:41;;;;;;;7.00;5.07;;;;;;;5.95;73.61;102263.31;5014979;28;20529;-86
2022/03/01 10:11:08;;;;;;;8.80;5.32;;;;;;;5.88;74.34;102277.34;5015004;28;20033;-87
2022/03/01 10:13:36;;;;;;;10.05;5.50;;;;;;;6.06;73.73;102278.22;5015069;28;20414;-86
2022/03/01 10:16:06;;;;;;;9.80;5.30;;;;;;;5.48;74.05;102193.13;5015034;28;20048;-88
2022/03/01 10:18:37;;;;;;;8.45;5.20;;;;;;;5.61;74.18;102209.81;5032569;28;20448;-88
2022/03/01 10:21:05;;;;;;;8.02;4.95;;;;;;;5.53;73.52;102193.56;5014873;28;20461;-87
2022/03/01 10:23:32;;;;;;;8.43;4.85;;;;;;;5.64;74.61;102249.91;4998693;28;20419;-88
2022/03/01 10:26:10;;;;;;;8.60;5.13;;;;;;;6.03;73.90;102274.41;5031444;28;20063;-89
2022/03/01 10:28:37;;;;;;;7.43;5.25;;;;;;;5.96;74.50;102295.34;4998668;28;20029;-90
2022/03/01 10:31:34;;;;;;;9.55;5.40;;;;;;;6.04;74.07;102289.22;5015072;28;20064;-88
2022/03/01 10:34:08;;;;;;;7.53;5.07;;;;;;;5.86;74.68;102276.28;4994524;28;20124;-90
2022/03/01 10:36:42;;;;;;;8.95;5.28;;;;;;;5.76;74.25;102250.22;5015091;28;20068;-90
2022/03/01 10:39:11;;;;;;;9.13;5.40;;;;;;;5.76;74.32;102260.59;5030497;28;20053;-89
2022/03/01 10:41:44;;;;;;;7.35;5.10;;;;;;;5.91;74.62;102280.22;5047808;28;20501;-88
2022/03/01 10:44:21;;;;;;;8.20;5.38;;;;;;;5.83;75.03;102283.72;5014485;28;20036;-89
2022/03/01 10:46:58;;;;;;;8.90;5.43;;;;;;;5.91;74.53;102274.13;5014584;28;20034;-87
2022/03/01 10:49:29;;;;;;;7.20;5.00;;;;;;;5.87;74.30;102266.81;5013657;28;20046;-89
2022/03/01 10:52:03;;;;;;;8.73;5.40;;;;;;;5.51;74.38;102182.13;5031066;28;20106;-89
2022/03/01 10:54:41;;;;;;;8.75;5.70;;;;;;;5.51;74.20;102196.00;5030157;28;20079;-89
2022/03/01 10:57:10;;;;;;;7.47;4.80;;;;;;;5.71;74.70;102239.41;5031108;28;20033;-88
2022/03/01 10:59:39;;;;;;;10.27;5.45;;;;;;;5.71;74.55;102230.69;5032142;28;20037;-88
2022/03/01 11:02:06;;;;;;;7.85;5.10;;;;;;;5.66;74.33;102211.22;5047396;28;20453;-87
2022/03/01 11:04:34;;;;;;;8.02;5.07;;;;;;;5.73;73.67;102203.25;5047505;28;20037;-87
2022/03/01 11:07:03;;;;;;;9.55;5.15;;;;;;;5.86;74.62;102255.53;5047464;28;20474;-88
2022/03/01 11:09:31;;;;;;;7.75;5.22;;;;;;;5.68;74.55;102238.19;5031111;28;20025;-88
2022/03/01 11:12:00;;;;;;;10.35;5.40;;;;;;;5.64;74.74;102220.50;5030828;28;20071;-88
2022/03/01 11:14:30;;;;;;;10.10;5.53;;;;;;;5.81;74.55;102243.78;5030659;28;20033;-87
2022/03/01 11:17:11;;;;;;;9.30;5.43;;;;;;;6.09;73.80;102262.94;5046829;28;20056;-86
2022/03/01 11:20:16;;;;;;;8.52;5.07;;;;;;;5.86;73.56;102226.06;5031376;28;20041;-88
2022/03/01 11:22:58;;;;;;;8.35;5.60;;;;;;;6.11;73.41;102269.19;5027177;28;20125;-86
2022/03/01 11:25:27;;;;;;;8.98;5.28;;;;;;;5.79;74.29;102247.91;4997460;28;20030;-86
2022/03/01 11:27:59;;;;;;;7.53;5.22;;;;;;;5.71;74.54;102229.03;5031437;28;20021;-85
2022/03/01 11:30:28;;;;;;;8.45;5.45;;;;;;;5.98;74.11;102257.50;4997354;28;20064;-86
2022/03/01 11:32:55;;;;;;;9.80;5.72;;;;;;;6.15;73.80;102274.69;4997422;28;20469;-86